sensor_id;sensor_type;location;lat;lon;timestamp;P1;durP1;ratioP1;P2;durP2;ratioP2
21266;SDS011;10791;53.108;18.326;2023-05-07T00:04:18;30.33;;;15.30;;
21266;SDS011;10791;53.108;18.326;2023-05-07T00:09:22;22.90;;;12.33;;
21266;SDS011;10791;53.108;18.326;2023-05-07T00:14:25;19.33;;;12.13;;
21266;SDS011;10791;53.108;18.326;2023-05-07T00:19:29;21.27;;;12.77;;
21266;SDS011;10791;53.108;18.326;2023-05-07T00:24:32;23.03;;;12.87;;
21266;SDS011;10791;53.108;18.326;2023-05-07T00:29:35;23.73;;;13.67;;
21266;SDS011;10791;53.108;18.326;2023-05-07T00:34:39;21.63;;;12.27;;
21266;SDS011;10791;53.108;18.326;2023-05-07T00:39:43;22.03;;;13.23;;
21266;SDS011;10791;53.108;18.326;2023-05-07T00:44:46;25.27;;;13.87;;
21266;SDS011;10791;53.108;18.326;2023-05-07T00:49:50;25.03;;;14.63;;
21266;SDS011;10791;53.108;18.326;2023-05-07T00:54:53;23.73;;;14.33;;
21266;SDS011;10791;53.108;18.326;2023-05-07T00:59:57;26.87;;;15.40;;
21266;SDS011;10791;53.108;18.326;2023-05-07T01:05:01;26.13;;;14.90;;
21266;SDS011;10791;53.108;18.326;2023-05-07T01:10:08;30.23;;;15.63;;
21266;SDS011;10791;53.108;18.326;2023-05-07T01:15:13;24.97;;;14.33;;
21266;SDS011;10791;53.108;18.326;2023-05-07T01:20:18;27.77;;;15.70;;
21266;SDS011;10791;53.108;18.326;2023-05-07T01:25:22;33.63;;;16.73;;
21266;SDS011;10791;53.108;18.326;2023-05-07T01:30:25;30.53;;;17.40;;
21266;SDS011;10791;53.108;18.326;2023-05-07T01:35:34;32.80;;;17.57;;
21266;SDS011;10791;53.108;18.326;2023-05-07T01:40:45;27.03;;;17.23;;
21266;SDS011;10791;53.108;18.326;2023-05-07T01:45:49;23.43;;;14.00;;
21266;SDS011;10791;53.108;18.326;2023-05-07T01:50:52;29.97;;;14.27;;
21266;SDS011;10791;53.108;18.326;2023-05-07T01:55:56;21.70;;;10.33;;
21266;SDS011;10791;53.108;18.326;2023-05-07T02:00:59;13.47;;;8.23;;
21266;SDS011;10791;53.108;18.326;2023-05-07T02:06:02;16.57;;;8.80;;
21266;SDS011;10791;53.108;18.326;2023-05-07T02:11:06;12.57;;;7.57;;
21266;SDS011;10791;53.108;18.326;2023-05-07T02:16:09;13.27;;;7.67;;
21266;SDS011;10791;53.108;18.326;2023-05-07T02:21:13;13.77;;;8.20;;
21266;SDS011;10791;53.108;18.326;2023-05-07T02:26:18;12.10;;;7.93;;
21266;SDS011;10791;53.108;18.326;2023-05-07T02:31:21;15.63;;;9.23;;
21266;SDS011;10791;53.108;18.326;2023-05-07T02:36:24;13.43;;;9.23;;
21266;SDS011;10791;53.108;18.326;2023-05-07T02:41:29;15.23;;;9.57;;
21266;SDS011;10791;53.108;18.326;2023-05-07T02:46:32;16.97;;;9.90;;
21266;SDS011;10791;53.108;18.326;2023-05-07T02:51:36;17.70;;;10.27;;
21266;SDS011;10791;53.108;18.326;2023-05-07T02:56:39;15.87;;;10.50;;
21266;SDS011;10791;53.108;18.326;2023-05-07T03:01:43;19.57;;;10.20;;
21266;SDS011;10791;53.108;18.326;2023-05-07T03:06:47;17.27;;;11.90;;
21266;SDS011;10791;53.108;18.326;2023-05-07T03:11:51;22.07;;;12.50;;
21266;SDS011;10791;53.108;18.326;2023-05-07T03:16:54;20.63;;;12.73;;
21266;SDS011;10791;53.108;18.326;2023-05-07T03:21:57;20.67;;;12.37;;
21266;SDS011;10791;53.108;18.326;2023-05-07T03:27:00;22.17;;;12.20;;
21266;SDS011;10791;53.108;18.326;2023-05-07T03:32:04;20.67;;;11.97;;
21266;SDS011;10791;53.108;18.326;2023-05-07T03:37:08;18.93;;;12.30;;
21266;SDS011;10791;53.108;18.326;2023-05-07T03:42:11;20.17;;;11.43;;
21266;SDS011;10791;53.108;18.326;2023-05-07T03:47:14;16.90;;;11.03;;
21266;SDS011;10791;53.108;18.326;2023-05-07T03:52:18;20.93;;;10.80;;
21266;SDS011;10791;53.108;18.326;2023-05-07T03:57:26;19.50;;;11.00;;
21266;SDS011;10791;53.108;18.326;2023-05-07T04:02:29;24.37;;;14.27;;
21266;SDS011;10791;53.108;18.326;2023-05-07T04:07:33;20.30;;;11.50;;
21266;SDS011;10791;53.108;18.326;2023-05-07T04:12:36;18.27;;;10.80;;
21266;SDS011;10791;53.108;18.326;2023-05-07T04:17:39;22.47;;;12.40;;
21266;SDS011;10791;53.108;18.326;2023-05-07T04:22:44;22.57;;;14.63;;
21266;SDS011;10791;53.108;18.326;2023-05-07T04:27:47;17.37;;;10.73;;
21266;SDS011;10791;53.108;18.326;2023-05-07T04:32:51;20.07;;;12.40;;
21266;SDS011;10791;53.108;18.326;2023-05-07T04:37:55;21.17;;;13.37;;
21266;SDS011;10791;53.108;18.326;2023-05-07T04:42:58;22.57;;;14.57;;
21266;SDS011;10791;53.108;18.326;2023-05-07T04:48:02;25.53;;;15.43;;
21266;SDS011;10791;53.108;18.326;2023-05-07T04:53:05;27.03;;;15.67;;
21266;SDS011;10791;53.108;18.326;2023-05-07T04:58:08;27.80;;;15.17;;
21266;SDS011;10791;53.108;18.326;2023-05-07T05:03:12;24.93;;;15.00;;
21266;SDS011;10791;53.108;18.326;2023-05-07T05:08:15;24.67;;;15.77;;
21266;SDS011;10791;53.108;18.326;2023-05-07T05:13:19;23.97;;;15.63;;
21266;SDS011;10791;53.108;18.326;2023-05-07T05:18:23;22.17;;;14.27;;
21266;SDS011;10791;53.108;18.326;2023-05-07T05:23:27;22.93;;;14.63;;
21266;SDS011;10791;53.108;18.326;2023-05-07T05:28:30;24.00;;;14.00;;
21266;SDS011;10791;53.108;18.326;2023-05-07T05:33:33;21.17;;;14.30;;
21266;SDS011;10791;53.108;18.326;2023-05-07T05:38:37;28.27;;;16.87;;
21266;SDS011;10791;53.108;18.326;2023-05-07T05:43:41;24.03;;;15.40;;
21266;SDS011;10791;53.108;18.326;2023-05-07T05:48:44;24.50;;;15.17;;
21266;SDS011;10791;53.108;18.326;2023-05-07T05:53:47;22.50;;;14.20;;
21266;SDS011;10791;53.108;18.326;2023-05-07T05:58:51;19.93;;;13.37;;
21266;SDS011;10791;53.108;18.326;2023-05-07T06:03:54;15.57;;;9.53;;
21266;SDS011;10791;53.108;18.326;2023-05-07T06:08:58;15.60;;;9.60;;
21266;SDS011;10791;53.108;18.326;2023-05-07T06:14:01;12.13;;;8.87;;
21266;SDS011;10791;53.108;18.326;2023-05-07T06:19:04;11.77;;;6.40;;
21266;SDS011;10791;53.108;18.326;2023-05-07T06:24:08;10.63;;;6.40;;
21266;SDS011;10791;53.108;18.326;2023-05-07T06:29:11;12.83;;;6.07;;
21266;SDS011;10791;53.108;18.326;2023-05-07T06:34:14;8.63;;;5.30;;
21266;SDS011;10791;53.108;18.326;2023-05-07T06:39:18;9.93;;;5.23;;
21266;SDS011;10791;53.108;18.326;2023-05-07T06:44:21;11.20;;;5.43;;
21266;SDS011;10791;53.108;18.326;2023-05-07T06:49:25;8.17;;;4.23;;
21266;SDS011;10791;53.108;18.326;2023-05-07T06:54:28;8.13;;;4.60;;
21266;SDS011;10791;53.108;18.326;2023-05-07T06:59:32;7.70;;;4.93;;
21266;SDS011;10791;53.108;18.326;2023-05-07T07:04:35;8.30;;;3.90;;
21266;SDS011;10791;53.108;18.326;2023-05-07T07:09:41;7.67;;;5.13;;
21266;SDS011;10791;53.108;18.326;2023-05-07T07:14:44;9.80;;;4.77;;
21266;SDS011;10791;53.108;18.326;2023-05-07T07:19:47;8.20;;;4.77;;
21266;SDS011;10791;53.108;18.326;2023-05-07T07:24:51;6.30;;;4.40;;
21266;SDS011;10791;53.108;18.326;2023-05-07T07:29:54;8.43;;;4.57;;
21266;SDS011;10791;53.108;18.326;2023-05-07T07:34:57;7.93;;;4.90;;
21266;SDS011;10791;53.108;18.326;2023-05-07T07:40:01;8.00;;;4.70;;
21266;SDS011;10791;53.108;18.326;2023-05-07T07:45:04;8.37;;;5.00;;
21266;SDS011;10791;53.108;18.326;2023-05-07T07:50:08;6.63;;;4.57;;
21266;SDS011;10791;53.108;18.326;2023-05-07T07:55:14;5.70;;;4.47;;
21266;SDS011;10791;53.108;18.326;2023-05-07T08:00:23;7.97;;;4.43;;
21266;SDS011;10791;53.108;18.326;2023-05-07T08:05:27;7.43;;;4.37;;
21266;SDS011;10791;53.108;18.326;2023-05-07T08:10:30;6.83;;;4.73;;
21266;SDS011;10791;53.108;18.326;2023-05-07T08:15:37;7.30;;;3.87;;
21266;SDS011;10791;53.108;18.326;2023-05-07T08:20:40;6.23;;;4.00;;
21266;SDS011;10791;53.108;18.326;2023-05-07T08:25:44;7.03;;;4.00;;
21266;SDS011;10791;53.108;18.326;2023-05-07T08:30:48;9.13;;;4.30;;
21266;SDS011;10791;53.108;18.326;2023-05-07T08:35:51;10.87;;;4.60;;
21266;SDS011;10791;53.108;18.326;2023-05-07T08:40:54;5.70;;;3.57;;
21266;SDS011;10791;53.108;18.326;2023-05-07T08:45:58;6.47;;;3.80;;
21266;SDS011;10791;53.108;18.326;2023-05-07T08:51:05;6.10;;;3.73;;
21266;SDS011;10791;53.108;18.326;2023-05-07T08:56:09;5.43;;;3.00;;
21266;SDS011;10791;53.108;18.326;2023-05-07T09:01:13;8.00;;;4.20;;
21266;SDS011;10791;53.108;18.326;2023-05-07T09:06:17;7.47;;;4.53;;
21266;SDS011;10791;53.108;18.326;2023-05-07T09:11:23;8.33;;;5.03;;
21266;SDS011;10791;53.108;18.326;2023-05-07T09:16:28;8.70;;;4.30;;
21266;SDS011;10791;53.108;18.326;2023-05-07T09:21:33;7.00;;;4.00;;
21266;SDS011;10791;53.108;18.326;2023-05-07T09:26:36;10.93;;;5.13;;
21266;SDS011;10791;53.108;18.326;2023-05-07T09:31:39;7.63;;;4.30;;
21266;SDS011;10791;53.108;18.326;2023-05-07T09:36:43;6.90;;;4.03;;
21266;SDS011;10791;53.108;18.326;2023-05-07T09:41:46;7.10;;;3.60;;
21266;SDS011;10791;53.108;18.326;2023-05-07T09:46:52;5.27;;;4.03;;
21266;SDS011;10791;53.108;18.326;2023-05-07T09:51:57;9.00;;;5.17;;
21266;SDS011;10791;53.108;18.326;2023-05-07T09:57:04;6.00;;;3.97;;
21266;SDS011;10791;53.108;18.326;2023-05-07T10:02:09;4.50;;;3.27;;
21266;SDS011;10791;53.108;18.326;2023-05-07T10:07:14;6.13;;;3.47;;
21266;SDS011;10791;53.108;18.326;2023-05-07T10:12:19;5.10;;;3.73;;
21266;SDS011;10791;53.108;18.326;2023-05-07T10:17:23;5.53;;;3.73;;
21266;SDS011;10791;53.108;18.326;2023-05-07T10:22:26;5.93;;;3.60;;
21266;SDS011;10791;53.108;18.326;2023-05-07T10:27:30;5.20;;;2.97;;
21266;SDS011;10791;53.108;18.326;2023-05-07T10:32:42;5.60;;;3.80;;
21266;SDS011;10791;53.108;18.326;2023-05-07T10:37:49;5.27;;;4.10;;
21266;SDS011;10791;53.108;18.326;2023-05-07T10:42:57;7.00;;;3.57;;
21266;SDS011;10791;53.108;18.326;2023-05-07T10:53:29;5.23;;;3.50;;
21266;SDS011;10791;53.108;18.326;2023-05-07T10:58:33;5.67;;;3.13;;
21266;SDS011;10791;53.108;18.326;2023-05-07T11:04:13;6.80;;;3.40;;
21266;SDS011;10791;53.108;18.326;2023-05-07T11:09:15;4.87;;;2.97;;
21266;SDS011;10791;53.108;18.326;2023-05-07T11:19:54;7.07;;;3.30;;
21266;SDS011;10791;53.108;18.326;2023-05-07T11:25:02;6.27;;;2.90;;
21266;SDS011;10791;53.108;18.326;2023-05-07T11:30:06;4.67;;;2.90;;
21266;SDS011;10791;53.108;18.326;2023-05-07T11:35:10;5.57;;;3.17;;
21266;SDS011;10791;53.108;18.326;2023-05-07T11:40:14;4.37;;;2.70;;
21266;SDS011;10791;53.108;18.326;2023-05-07T11:45:23;4.97;;;2.60;;
21266;SDS011;10791;53.108;18.326;2023-05-07T11:50:30;3.73;;;2.23;;
21266;SDS011;10791;53.108;18.326;2023-05-07T11:55:33;3.90;;;3.10;;
21266;SDS011;10791;53.108;18.326;2023-05-07T12:00:37;4.25;;;2.92;;
21266;SDS011;10791;53.108;18.326;2023-05-07T12:05:40;4.93;;;2.40;;
21266;SDS011;10791;53.108;18.326;2023-05-07T12:10:49;5.40;;;2.27;;
21266;SDS011;10791;53.108;18.326;2023-05-07T12:16:12;5.03;;;2.10;;
21266;SDS011;10791;53.108;18.326;2023-05-07T12:21:15;4.60;;;2.42;;
21266;SDS011;10791;53.108;18.326;2023-05-07T12:27:15;4.23;;;2.77;;
21266;SDS011;10791;53.108;18.326;2023-05-07T12:32:20;2.97;;;2.33;;
21266;SDS011;10791;53.108;18.326;2023-05-07T12:37:24;6.53;;;2.73;;
21266;SDS011;10791;53.108;18.326;2023-05-07T12:42:36;3.43;;;2.33;;
21266;SDS011;10791;53.108;18.326;2023-05-07T12:47:43;7.50;;;2.80;;
21266;SDS011;10791;53.108;18.326;2023-05-07T12:52:48;6.13;;;2.90;;
21266;SDS011;10791;53.108;18.326;2023-05-07T12:57:52;5.85;;;3.20;;
21266;SDS011;10791;53.108;18.326;2023-05-07T13:02:58;6.38;;;2.95;;
21266;SDS011;10791;53.108;18.326;2023-05-07T13:08:01;4.27;;;2.40;;
21266;SDS011;10791;53.108;18.326;2023-05-07T13:13:04;5.63;;;2.83;;
21266;SDS011;10791;53.108;18.326;2023-05-07T13:18:07;5.33;;;2.70;;
21266;SDS011;10791;53.108;18.326;2023-05-07T13:23:13;9.17;;;2.87;;
21266;SDS011;10791;53.108;18.326;2023-05-07T13:28:17;3.83;;;2.47;;
21266;SDS011;10791;53.108;18.326;2023-05-07T13:33:20;5.13;;;2.50;;
21266;SDS011;10791;53.108;18.326;2023-05-07T13:38:23;3.50;;;2.37;;
21266;SDS011;10791;53.108;18.326;2023-05-07T13:43:26;3.50;;;2.07;;
21266;SDS011;10791;53.108;18.326;2023-05-07T13:48:29;4.93;;;2.40;;
21266;SDS011;10791;53.108;18.326;2023-05-07T13:53:32;4.32;;;2.00;;
21266;SDS011;10791;53.108;18.326;2023-05-07T13:58:35;4.85;;;2.38;;
21266;SDS011;10791;53.108;18.326;2023-05-07T14:03:49;6.95;;;2.20;;
21266;SDS011;10791;53.108;18.326;2023-05-07T14:08:52;3.00;;;2.15;;
21266;SDS011;10791;53.108;18.326;2023-05-07T14:13:56;3.55;;;2.03;;
21266;SDS011;10791;53.108;18.326;2023-05-07T14:19:00;3.47;;;2.15;;
21266;SDS011;10791;53.108;18.326;2023-05-07T14:24:05;3.65;;;1.90;;
21266;SDS011;10791;53.108;18.326;2023-05-07T14:29:09;4.43;;;2.50;;
21266;SDS011;10791;53.108;18.326;2023-05-07T14:34:12;4.75;;;1.98;;
21266;SDS011;10791;53.108;18.326;2023-05-07T14:39:16;5.88;;;2.15;;
21266;SDS011;10791;53.108;18.326;2023-05-07T14:44:19;4.38;;;1.95;;
21266;SDS011;10791;53.108;18.326;2023-05-07T14:49:22;3.40;;;1.90;;
21266;SDS011;10791;53.108;18.326;2023-05-07T14:54:26;4.75;;;2.53;;
21266;SDS011;10791;53.108;18.326;2023-05-07T14:59:29;4.10;;;2.20;;
21266;SDS011;10791;53.108;18.326;2023-05-07T15:04:32;6.30;;;2.20;;
21266;SDS011;10791;53.108;18.326;2023-05-07T15:09:35;3.38;;;2.00;;
21266;SDS011;10791;53.108;18.326;2023-05-07T15:14:38;2.65;;;1.80;;
21266;SDS011;10791;53.108;18.326;2023-05-07T15:19:42;3.75;;;2.25;;
21266;SDS011;10791;53.108;18.326;2023-05-07T15:24:45;3.80;;;1.90;;
21266;SDS011;10791;53.108;18.326;2023-05-07T15:29:48;4.38;;;2.20;;
21266;SDS011;10791;53.108;18.326;2023-05-07T15:34:51;4.78;;;2.50;;
21266;SDS011;10791;53.108;18.326;2023-05-07T15:39:54;5.72;;;2.20;;
21266;SDS011;10791;53.108;18.326;2023-05-07T15:44:57;2.90;;;1.77;;
21266;SDS011;10791;53.108;18.326;2023-05-07T15:50:03;3.03;;;1.90;;
21266;SDS011;10791;53.108;18.326;2023-05-07T15:55:06;4.22;;;2.30;;
21266;SDS011;10791;53.108;18.326;2023-05-07T16:00:11;3.63;;;1.70;;
21266;SDS011;10791;53.108;18.326;2023-05-07T16:05:15;3.70;;;1.77;;
21266;SDS011;10791;53.108;18.326;2023-05-07T16:10:19;3.35;;;2.00;;
21266;SDS011;10791;53.108;18.326;2023-05-07T16:15:22;2.05;;;1.45;;
21266;SDS011;10791;53.108;18.326;2023-05-07T16:20:28;4.70;;;2.10;;
21266;SDS011;10791;53.108;18.326;2023-05-07T16:25:32;2.60;;;1.90;;
21266;SDS011;10791;53.108;18.326;2023-05-07T16:30:36;4.25;;;1.98;;
21266;SDS011;10791;53.108;18.326;2023-05-07T16:35:39;4.30;;;2.17;;
21266;SDS011;10791;53.108;18.326;2023-05-07T16:40:44;3.83;;;2.22;;
21266;SDS011;10791;53.108;18.326;2023-05-07T16:45:47;4.20;;;2.05;;
21266;SDS011;10791;53.108;18.326;2023-05-07T16:50:50;3.45;;;2.08;;
21266;SDS011;10791;53.108;18.326;2023-05-07T16:55:53;3.15;;;2.20;;
21266;SDS011;10791;53.108;18.326;2023-05-07T17:00:57;4.05;;;2.40;;
21266;SDS011;10791;53.108;18.326;2023-05-07T17:06:01;4.35;;;2.33;;
21266;SDS011;10791;53.108;18.326;2023-05-07T17:11:05;8.65;;;2.10;;
21266;SDS011;10791;53.108;18.326;2023-05-07T17:16:08;5.70;;;3.25;;
21266;SDS011;10791;53.108;18.326;2023-05-07T17:21:12;3.63;;;2.40;;
21266;SDS011;10791;53.108;18.326;2023-05-07T17:26:15;5.60;;;2.90;;
21266;SDS011;10791;53.108;18.326;2023-05-07T17:31:19;5.45;;;3.50;;
21266;SDS011;10791;53.108;18.326;2023-05-07T17:36:22;24.77;;;16.67;;
21266;SDS011;10791;53.108;18.326;2023-05-07T17:41:25;9.25;;;4.53;;
21266;SDS011;10791;53.108;18.326;2023-05-07T17:46:28;7.47;;;3.90;;
21266;SDS011;10791;53.108;18.326;2023-05-07T17:51:32;8.48;;;5.07;;
21266;SDS011;10791;53.108;18.326;2023-05-07T17:56:54;9.93;;;5.85;;
21266;SDS011;10791;53.108;18.326;2023-05-07T18:01:57;8.73;;;5.00;;
21266;SDS011;10791;53.108;18.326;2023-05-07T18:07:01;7.53;;;5.20;;
21266;SDS011;10791;53.108;18.326;2023-05-07T18:12:05;9.03;;;5.67;;
21266;SDS011;10791;53.108;18.326;2023-05-07T18:17:09;10.63;;;6.23;;
21266;SDS011;10791;53.108;18.326;2023-05-07T18:22:12;7.87;;;4.73;;
21266;SDS011;10791;53.108;18.326;2023-05-07T18:27:15;7.60;;;4.93;;
21266;SDS011;10791;53.108;18.326;2023-05-07T18:32:18;7.97;;;5.30;;
21266;SDS011;10791;53.108;18.326;2023-05-07T18:37:24;7.27;;;3.47;;
21266;SDS011;10791;53.108;18.326;2023-05-07T18:42:28;5.00;;;3.37;;
21266;SDS011;10791;53.108;18.326;2023-05-07T18:47:37;12.70;;;5.93;;
21266;SDS011;10791;53.108;18.326;2023-05-07T18:52:41;9.37;;;5.70;;
21266;SDS011;10791;53.108;18.326;2023-05-07T18:57:44;10.33;;;5.30;;
21266;SDS011;10791;53.108;18.326;2023-05-07T19:02:50;9.73;;;5.67;;
21266;SDS011;10791;53.108;18.326;2023-05-07T19:07:54;8.77;;;5.20;;
21266;SDS011;10791;53.108;18.326;2023-05-07T19:13:00;7.43;;;5.10;;
21266;SDS011;10791;53.108;18.326;2023-05-07T19:18:10;9.93;;;4.77;;
21266;SDS011;10791;53.108;18.326;2023-05-07T19:23:14;9.23;;;5.30;;
21266;SDS011;10791;53.108;18.326;2023-05-07T19:28:18;8.47;;;4.83;;
21266;SDS011;10791;53.108;18.326;2023-05-07T19:33:23;10.93;;;4.83;;
21266;SDS011;10791;53.108;18.326;2023-05-07T19:38:27;10.23;;;6.00;;
21266;SDS011;10791;53.108;18.326;2023-05-07T19:43:31;28.57;;;13.97;;
21266;SDS011;10791;53.108;18.326;2023-05-07T19:48:39;23.83;;;12.90;;
21266;SDS011;10791;53.108;18.326;2023-05-07T19:53:43;24.17;;;12.77;;
21266;SDS011;10791;53.108;18.326;2023-05-07T19:58:47;33.37;;;14.90;;
21266;SDS011;10791;53.108;18.326;2023-05-07T20:03:51;24.23;;;13.53;;
21266;SDS011;10791;53.108;18.326;2023-05-07T20:08:56;22.13;;;11.70;;
21266;SDS011;10791;53.108;18.326;2023-05-07T20:13:59;18.57;;;10.67;;
21266;SDS011;10791;53.108;18.326;2023-05-07T20:19:02;15.93;;;8.23;;
21266;SDS011;10791;53.108;18.326;2023-05-07T20:24:06;12.10;;;6.57;;
21266;SDS011;10791;53.108;18.326;2023-05-07T20:29:09;23.83;;;11.53;;
21266;SDS011;10791;53.108;18.326;2023-05-07T20:34:12;28.03;;;14.87;;
21266;SDS011;10791;53.108;18.326;2023-05-07T20:39:15;31.33;;;18.03;;
21266;SDS011;10791;53.108;18.326;2023-05-07T20:44:19;17.83;;;11.03;;
21266;SDS011;10791;53.108;18.326;2023-05-07T20:49:22;21.17;;;11.37;;
21266;SDS011;10791;53.108;18.326;2023-05-07T20:54:25;16.20;;;8.50;;
21266;SDS011;10791;53.108;18.326;2023-05-07T20:59:32;13.73;;;8.40;;
21266;SDS011;10791;53.108;18.326;2023-05-07T21:04:37;19.57;;;9.50;;
21266;SDS011;10791;53.108;18.326;2023-05-07T21:09:41;18.83;;;11.07;;
21266;SDS011;10791;53.108;18.326;2023-05-07T21:14:44;19.43;;;10.43;;
21266;SDS011;10791;53.108;18.326;2023-05-07T21:19:47;16.57;;;9.90;;
21266;SDS011;10791;53.108;18.326;2023-05-07T21:24:52;19.60;;;12.03;;
21266;SDS011;10791;53.108;18.326;2023-05-07T21:29:55;18.97;;;11.40;;
21266;SDS011;10791;53.108;18.326;2023-05-07T21:35:04;24.90;;;12.53;;
21266;SDS011;10791;53.108;18.326;2023-05-07T21:40:08;137.23;;;43.80;;
21266;SDS011;10791;53.108;18.326;2023-05-07T21:45:12;175.97;;;50.73;;
21266;SDS011;10791;53.108;18.326;2023-05-07T21:50:15;75.83;;;24.70;;
21266;SDS011;10791;53.108;18.326;2023-05-07T21:55:18;55.30;;;20.13;;
21266;SDS011;10791;53.108;18.326;2023-05-07T22:00:21;65.63;;;23.97;;
21266;SDS011;10791;53.108;18.326;2023-05-07T22:05:24;82.87;;;26.80;;
21266;SDS011;10791;53.108;18.326;2023-05-07T22:10:27;49.13;;;21.53;;
21266;SDS011;10791;53.108;18.326;2023-05-07T22:15:31;50.33;;;20.57;;
21266;SDS011;10791;53.108;18.326;2023-05-07T22:20:38;36.10;;;17.47;;
21266;SDS011;10791;53.108;18.326;2023-05-07T22:25:41;41.37;;;18.63;;
21266;SDS011;10791;53.108;18.326;2023-05-07T22:30:44;47.03;;;20.50;;
21266;SDS011;10791;53.108;18.326;2023-05-07T22:35:47;44.97;;;21.30;;
21266;SDS011;10791;53.108;18.326;2023-05-07T22:40:50;46.73;;;20.47;;
21266;SDS011;10791;53.108;18.326;2023-05-07T22:45:57;45.40;;;21.43;;
21266;SDS011;10791;53.108;18.326;2023-05-07T22:51:02;40.33;;;19.07;;
21266;SDS011;10791;53.108;18.326;2023-05-07T22:56:05;46.50;;;18.73;;
21266;SDS011;10791;53.108;18.326;2023-05-07T23:01:10;40.13;;;18.07;;
21266;SDS011;10791;53.108;18.326;2023-05-07T23:06:15;31.67;;;15.50;;
21266;SDS011;10791;53.108;18.326;2023-05-07T23:11:18;26.63;;;12.83;;
21266;SDS011;10791;53.108;18.326;2023-05-07T23:16:22;21.67;;;11.57;;
21266;SDS011;10791;53.108;18.326;2023-05-07T23:21:25;23.63;;;12.47;;
21266;SDS011;10791;53.108;18.326;2023-05-07T23:26:28;23.43;;;11.37;;
21266;SDS011;10791;53.108;18.326;2023-05-07T23:31:32;28.27;;;12.37;;
21266;SDS011;10791;53.108;18.326;2023-05-07T23:36:35;34.60;;;14.30;;
21266;SDS011;10791;53.108;18.326;2023-05-07T23:41:38;102.10;;;32.30;;
21266;SDS011;10791;53.108;18.326;2023-05-07T23:46:41;61.67;;;25.43;;
21266;SDS011;10791;53.108;18.326;2023-05-07T23:51:45;41.33;;;19.07;;
21266;SDS011;10791;53.108;18.326;2023-05-07T23:56:48;48.53;;;20.80;;
